Station info - map view · info · telemetry · weather · raw · status · beacons · messages · bulletins · browse · moving · my account
Callsign, ship name or locator: Clear       
It is possible to search using wildcards (*?) after a prefix. Example: OH*
APRS station G6ZNW-9 - show graphs
Map loading...
Comment: STAN MOBILE
Mic-E message: En route
Location: 51°05.11' N 1°10.63' E - locator JO01OC10GK - show map - static map
520.7 yards Northwest bearing 295° from Folkestone, Kent, England, United Kingdom [?]
2.0 miles South bearing 161° from Hawkinge, Kent, England, United Kingdom
62.2 miles Southeast bearing 118° from City of London, Greater London, England, United Kingdom
63.4 miles Southeast bearing 117° from London, Greater London, England, United Kingdom
Last position: 2017-05-23 10:08:57 EDT (2d 4h10m ago)
2017-05-23 15:08:57 BST local time at Folkestone, United Kingdom [?]
Altitude: 75 ft
Course: 278°
Speed: 12 MPH
Device: Yaesu: FTM-400DR (rig)
Last path: G6ZNW-9>UQ0UQ1 via G3OJZ*,qAR,F8KII-2 (good)
Positions stored: 13401
Packet rate: 50 seconds between packets on average during 200 seconds.
Other SSIDs: G6ZNW
Stations near current position of G6ZNW-9 - show more
callsign distance last heard - EDT      callsign distance last heard - EDT
G6ZNW509.3 yards 186°2017-05-25 14:14:30 2E0UEX0.5 miles 338°2017-05-25 03:04:05
MB7UF0.8 miles 219°2017-05-25 14:19:13 SQ9MTY-71.0 miles 321°2017-05-14 07:00:38
G0SLJ-61.1 miles 252°2017-04-30 08:29:20 2E0DJF-91.8 miles 281°2017-05-20 18:06:50
M0RNP-51.8 miles 273°2017-05-07 12:24:38 DW59361.8 miles 277°2017-05-25 14:18:09
G3OJZ2.0 miles 56°2017-05-25 14:10:43 G3OJZ-12.0 miles 56°2017-05-25 14:05:39
G3OJZ-92.0 miles 56°2017-05-25 07:01:18 M1CMN-92.0 miles 52°2017-05-25 14:00:50
M1CVF-92.0 miles 52°2017-05-24 14:24:13 GB7FK C2.0 miles 52°2017-05-25 14:00:10
GB7FK-C2.0 miles 52°2017-05-25 13:59:55 GB7FK-B2.0 miles 52°2017-05-25 13:59:55
GB7FK B2.0 miles 52°2017-05-25 14:00:10 M0ORY-92.4 miles 289°2017-05-19 10:26:51
K G ONE2.8 miles 133°2017-05-10 00:49:24 RNLI LIFEBOAT 13-022.9 miles 151°2017-05-14 13:50:47
Stations which heard G6ZNW-9 directly on radio –
callsign pkts first heard - EDT last heard longest (tx => rx) longest at - EDT
MB7UIK 6 2017-05-02 04:33:25 2017-05-09 09:01:31 JO01MC > JO01HE 18.8 miles 280° 2017-05-09 09:01:31
G3OJZ 52 2017-05-02 04:29:58 2017-05-23 10:11:11 JO01NH > JO01OC 15.2 miles 163° 2017-05-09 08:32:36
MB7UH 6 2017-05-02 09:26:13 2017-05-23 08:01:50 JO01MD > JO01KV 52.2 miles 353° 2017-05-23 03:58:44
G0BUX 3 2017-05-21 05:58:01 2017-05-23 08:11:25 JO01MC > JO01DA 34.7 miles 262° 2017-05-21 14:22:41
MB7UEK 23 2017-05-02 04:44:15 2017-05-23 07:54:27 JO01MF > JO01NI 9.2 miles 10° 2017-05-02 04:44:15
MB7UW 1 2017-05-02 14:51:18 2017-05-02 14:51:18 IO91WG > IO91HB 56.2 miles 257° 2017-05-02 14:51:18
G4MRS-2 1 2017-05-02 04:47:24 2017-05-02 04:47:24 JO01NG > JO02PB 56.2 miles 9° 2017-05-02 04:47:24
M0XDC 2 2017-05-02 09:29:54 2017-05-02 09:30:29 JO01MF > JO01DQ 45.2 miles 314° 2017-05-02 09:30:29
M0OFC 17 2017-05-02 04:34:00 2017-05-23 08:08:26 JO01NC > JO00FU 34.8 miles 240° 2017-05-02 09:55:01
F8KGJ-4 1 2017-05-09 03:52:16 2017-05-09 03:52:16 JO01NB > IN98QX 164.7 miles 209° 2017-05-09 03:52:16
MB7VA 4 2017-05-02 13:07:27 2017-05-23 08:14:47 JO01MD > JO00CX 36.5 miles 253° 2017-05-23 08:14:47
M0BPQ-1 11 2017-05-02 12:47:17 2017-05-02 15:15:55 JO01GH > JO01AO 30.9 miles 315° 2017-05-02 15:15:55
F8KII-2 25 2017-05-02 04:30:32 2017-05-23 08:31:39 JO01MD > JN09NW 82.8 miles 178° 2017-05-23 08:10:15
MB7UVM 12 2017-05-02 04:36:55 2017-05-23 08:00:31 JO01MC > JO01GN 36.9 miles 325° 2017-05-08 15:34:32
MB7UMS 61 2017-05-02 13:08:36 2017-05-02 14:51:52 IO91XG > IO91WB 14.5 miles 196° 2017-05-02 13:08:36
M6ORT-10 9 2017-05-02 12:55:31 2017-05-02 15:08:55 JO01EH > IO91WP 30.6 miles 318° 2017-05-02 15:08:55
MB7USB 180 2017-05-02 04:32:23 2017-05-23 08:18:32 JE00AA > JO01KD 6983.6 miles 1° 2017-05-08 14:28:15
MB7UE 102 2017-05-02 04:31:12 2017-05-23 08:34:32 JO01ME > JO00HV 29.7 miles 223° 2017-05-09 08:53:41
MB7UF 33 2017-05-02 04:26:45 2017-05-23 10:10:05 JO01AB > JO01NB 50.6 miles 90° 2017-05-23 10:10:05
MB7USS-1 4 2017-05-02 13:12:14 2017-05-02 14:54:47 IO91XG > IO90TV 30.2 miles 215° 2017-05-02 14:54:47

Only position packets which were originated by the station are shown here. The range statistics show some extra long hops, because some digipeaters do not correctly add themselves to the digipeater path. Please check the raw packets.
About this site
This page shows real-time information collected from the Automatic Position Reporting System Internet network (APRS-IS). APRS is used by amateur (ham) radio operators to transmit real-time position information, weather data, telemetry and messages over the radio. A vehicle equipped with a GPS receiver, a VHF transmitter or HF transceiver and a small computer device called a tracker transmits it's location, speed and course in a small data packet, which is then received by a nearby iGate receiving site which forwards the packet on the Internet. Systems connected to the Internet can send information on the APRS-IS without a radio transmitter, or collect and display information transmitted anywhere in the world.
FAQ · Blog · Discussion group · Linking to aprs.fi · AIS sites · Service status · Database statistics · Advertising on aprs.fi · Technical details · API · Change log · Planned changes · Credits and thanks · Terms Of Service · iPhone/iPad APRS